Le Ponant — FGZZ — position and weather

sailwx.info

Track history (hours):
 
Tides and Currents Weather Stations Pressure Air Temp Water Temp Dewpoint Dewpoint Depression Visibility Wind Speed Wind Dir Waves Ship Positions

Le Ponant

Operator: Compangy des Iles du Ponant

Last reported at 2017-Jul-20 04:04 UTC. Time now 2017-Jul-21 02:33 UTC.
Position N 42°15' E 008°27'.

Length 84 m; draft 4.2 m.

Type: Passenger vessel. MMSI: 227186000.

Date/timePositionNaut miles runAvg speedWind from/ knotsBaromVisibWave heightAir tempDewpointWater temp
2017-Jul-20 04:04N 42°15' E 008°27'2 9.7
2017-Jul-20 03:52N 42°16' E 008°25'410.2
2017-Jul-20 03:30N 42°19' E 008°23'610.3
2017-Jul-20 02:56N 42°24' E 008°19'510.6
2017-Jul-20 02:30N 42°29' E 008°16'610.5
2017-Jul-20 01:56N 42°34' E 008°12'510.2
2017-Jul-20 01:28N 42°38' E 008°09'5 9.9
2017-Jul-20 00:59N 42°42' E 008°06'4 8.8
2017-Jul-20 00:30N 42°46' E 008°03'4 8.8
2017-Jul-20 00:00N 42°49' E 007°60'4 8.8
2017-Jul-19 23:30N 42°53' E 007°56'4 8.9
2017-Jul-19 23:00N 42°57' E 007°53'11 9.0
2017-Jul-19 21:49N 43°06' E 007°45'310.0
2017-Jul-19 21:30N 43°09' E 007°43'510.7
2017-Jul-19 21:00N 43°13' E 007°39'510.8
2017-Jul-19 20:30N 43°18' E 007°35'510.8
2017-Jul-19 20:00N 43°22' E 007°31'510.8
2017-Jul-19 19:30N 43°27' E 007°28'510.6
2017-Jul-19 19:00N 43°32' E 007°24'5 0.4
2017-Jul-19 04:55N 43°37' E 007°22'410.3
2017-Jul-19 04:30N 43°34' E 007°26'510.8
2017-Jul-19 04:00N 43°30' E 007°32'510.7
2017-Jul-19 03:30N 43°27' E 007°38'510.3
2017-Jul-19 03:00N 43°23' E 007°42'610.2
2017-Jul-19 02:26N 43°18' E 007°47'410.2
2017-Jul-19 02:00N 43°15' E 007°51'510.1
2017-Jul-19 01:30N 43°12' E 007°56'510.1
2017-Jul-19 01:00N 43°08' E 008°01'710.1
2017-Jul-19 00:16N 43°03' E 008°08'3310.3
2017-Jul-18 21:05N 42°39' E 008°40'110.6
2017-Jul-18 21:00N 42°39' E 008°41'510.4
2017-Jul-18 20:30N 42°35' E 008°45'1 2.7
2017-Jul-18 19:59N 42°34' E 008°46'0 0.0
2017-Jul-18 19:20N 42°34' E 008°46'0 0.0
2017-Jul-18 18:56N 42°34' E 008°46'0 0.0
2017-Jul-18 18:23N 42°34' E 008°46'0 0.0
2017-Jul-18 17:56N 42°34' E 008°46'0 0.0
2017-Jul-18 17:20N 42°34' E 008°46'0 0.0
2017-Jul-18 12:44N 42°34' E 008°46'0 0.0
2017-Jul-18 12:29N 42°34' E 008°46'0 0.0
2017-Jul-18 10:59N 42°34' E 008°46'0 0.0
2017-Jul-18 10:29N 42°34' E 008°46'0 0.0
2017-Jul-18 09:18N 42°34' E 008°46'0 0.0
2017-Jul-18 09:01N 42°34' E 008°46'0 0.0
2017-Jul-18 08:29N 42°34' E 008°46'0 0.0
2017-Jul-18 07:56N 42°34' E 008°46'0 0.0
2017-Jul-18 07:31N 42°34' E 008°46'0 0.1
2017-Jul-18 06:59N 42°34' E 008°46'0 0.0
2017-Jul-18 06:30N 42°34' E 008°46'0 0.0
2017-Jul-18 05:55N 42°34' E 008°46'  
2017-Jul-12 23:06N 42°54' E 007°48'1 7.8
2017-Jul-12 23:00N 42°54' E 007°48'5 9.5
2017-Jul-12 22:31N 42°58' E 007°46'510.4
2017-Jul-12 22:00N 43°03' E 007°43'910.9
2017-Jul-12 21:09N 43°11' E 007°37'210.8
2017-Jul-12 21:00N 43°13' E 007°36'510.8
2017-Jul-12 20:30N 43°17' E 007°33'611.0
2017-Jul-12 20:00N 43°22' E 007°29'1010.9
2017-Jul-12 19:06N 43°31' E 007°23'210.6
2017-Jul-12 18:56N 43°33' E 007°22'7 0.5
2017-Jul-12 05:09N 43°40' E 007°19'2 7.7
2017-Jul-12 04:52N 43°39' E 007°22'38 8.3
2017-Jul-12 00:17N 43°30' E 008°12'3 9.2
2017-Jul-11 23:59N 43°29' E 008°16'4 9.4
2017-Jul-11 23:30N 43°28' E 008°22'5 9.0
2017-Jul-11 23:00N 43°27' E 008°28'4 8.5
2017-Jul-11 22:30N 43°25' E 008°34'4 8.3
2017-Jul-11 22:00N 43°24' E 008°39'510.1
2017-Jul-11 21:30N 43°23' E 008°46'510.3
2017-Jul-11 20:59N 43°22' E 008°53'5 9.9
2017-Jul-11 20:30N 43°21' E 008°59'510.3
2017-Jul-11 20:00N 43°19' E 009°06'510.4
2017-Jul-11 19:30N 43°18' E 009°13'6 9.8
2017-Jul-11 18:52N 43°16' E 009°21'910.4
2017-Jul-11 17:58N 43°14' E 009°34'510.7
2017-Jul-11 17:30N 43°13' E 009°40'510.6
2017-Jul-11 17:00N 43°11' E 009°47'610.1
2017-Jul-11 16:26N 43°10' E 009°55'410.2
2017-Jul-11 16:00N 43°07' E 009°59'610.6
2017-Jul-11 15:26N 43°02' E 010°05'510.7
2017-Jul-11 14:59N 42°59' E 010°09'1210.5
2017-Jul-11 13:53N 42°50' E 010°20'4 0.4
2017-Jul-11 04:42N 42°52' E 010°15'2 8.4
2017-Jul-11 04:29N 42°52' E 010°13'  
Track history (hours):
 
Tides and Currents Weather Stations Pressure Air Temp Water Temp Dewpoint Dewpoint Depression Visibility Wind Speed Wind Dir Waves Ship Positions

Le Ponant

Operator: Compangy des Iles du Ponant

Last reported at 2017-Jul-20 04:04 UTC. Time now 2017-Jul-21 02:33 UTC.
Position N 42°15' E 008°27'.

Length 84 m; draft 4.2 m.

Type: Passenger vessel. MMSI: 227186000.

Date/timePositionNaut miles runAvg speedWind from/ knotsBaromVisibWave heightAir tempDewpointWater temp
2017-Jul-20 04:04N 42°15' E 008°27'2 9.7
2017-Jul-20 03:52N 42°16' E 008°25'410.2
2017-Jul-20 03:30N 42°19' E 008°23'610.3
2017-Jul-20 02:56N 42°24' E 008°19'510.6
2017-Jul-20 02:30N 42°29' E 008°16'610.5
2017-Jul-20 01:56N 42°34' E 008°12'510.2
2017-Jul-20 01:28N 42°38' E 008°09'5 9.9
2017-Jul-20 00:59N 42°42' E 008°06'4 8.8
2017-Jul-20 00:30N 42°46' E 008°03'4 8.8
2017-Jul-20 00:00N 42°49' E 007°60'4 8.8
2017-Jul-19 23:30N 42°53' E 007°56'4 8.9
2017-Jul-19 23:00N 42°57' E 007°53'11 9.0
2017-Jul-19 21:49N 43°06' E 007°45'310.0
2017-Jul-19 21:30N 43°09' E 007°43'510.7
2017-Jul-19 21:00N 43°13' E 007°39'510.8
2017-Jul-19 20:30N 43°18' E 007°35'510.8
2017-Jul-19 20:00N 43°22' E 007°31'510.8
2017-Jul-19 19:30N 43°27' E 007°28'510.6
2017-Jul-19 19:00N 43°32' E 007°24'5 0.4
2017-Jul-19 04:55N 43°37' E 007°22'410.3
2017-Jul-19 04:30N 43°34' E 007°26'510.8
2017-Jul-19 04:00N 43°30' E 007°32'510.7
2017-Jul-19 03:30N 43°27' E 007°38'510.3
2017-Jul-19 03:00N 43°23' E 007°42'610.2
2017-Jul-19 02:26N 43°18' E 007°47'410.2
2017-Jul-19 02:00N 43°15' E 007°51'510.1
2017-Jul-19 01:30N 43°12' E 007°56'510.1
2017-Jul-19 01:00N 43°08' E 008°01'710.1
2017-Jul-19 00:16N 43°03' E 008°08'3310.3
2017-Jul-18 21:05N 42°39' E 008°40'110.6
2017-Jul-18 21:00N 42°39' E 008°41'510.4
2017-Jul-18 20:30N 42°35' E 008°45'1 2.7
2017-Jul-18 19:59N 42°34' E 008°46'0 0.0
2017-Jul-18 19:20N 42°34' E 008°46'0 0.0
2017-Jul-18 18:56N 42°34' E 008°46'0 0.0
2017-Jul-18 18:23N 42°34' E 008°46'0 0.0
2017-Jul-18 17:56N 42°34' E 008°46'0 0.0
2017-Jul-18 17:20N 42°34' E 008°46'0 0.0
2017-Jul-18 12:44N 42°34' E 008°46'0 0.0
2017-Jul-18 12:29N 42°34' E 008°46'0 0.0
2017-Jul-18 10:59N 42°34' E 008°46'0 0.0
2017-Jul-18 10:29N 42°34' E 008°46'0 0.0
2017-Jul-18 09:18N 42°34' E 008°46'0 0.0
2017-Jul-18 09:01N 42°34' E 008°46'0 0.0
2017-Jul-18 08:29N 42°34' E 008°46'0 0.0
2017-Jul-18 07:56N 42°34' E 008°46'0 0.0
2017-Jul-18 07:31N 42°34' E 008°46'0 0.1
2017-Jul-18 06:59N 42°34' E 008°46'0 0.0
2017-Jul-18 06:30N 42°34' E 008°46'0 0.0
2017-Jul-18 05:55N 42°34' E 008°46'  
2017-Jul-12 23:06N 42°54' E 007°48'1 7.8
2017-Jul-12 23:00N 42°54' E 007°48'5 9.5
2017-Jul-12 22:31N 42°58' E 007°46'510.4
2017-Jul-12 22:00N 43°03' E 007°43'910.9
2017-Jul-12 21:09N 43°11' E 007°37'210.8
2017-Jul-12 21:00N 43°13' E 007°36'510.8
2017-Jul-12 20:30N 43°17' E 007°33'611.0
2017-Jul-12 20:00N 43°22' E 007°29'1010.9
2017-Jul-12 19:06N 43°31' E 007°23'210.6
2017-Jul-12 18:56N 43°33' E 007°22'7 0.5
2017-Jul-12 05:09N 43°40' E 007°19'2 7.7
2017-Jul-12 04:52N 43°39' E 007°22'38 8.3
2017-Jul-12 00:17N 43°30' E 008°12'3 9.2
2017-Jul-11 23:59N 43°29' E 008°16'4 9.4
2017-Jul-11 23:30N 43°28' E 008°22'5 9.0
2017-Jul-11 23:00N 43°27' E 008°28'4 8.5
2017-Jul-11 22:30N 43°25' E 008°34'4 8.3
2017-Jul-11 22:00N 43°24' E 008°39'510.1
2017-Jul-11 21:30N 43°23' E 008°46'510.3
2017-Jul-11 20:59N 43°22' E 008°53'5 9.9
2017-Jul-11 20:30N 43°21' E 008°59'510.3
2017-Jul-11 20:00N 43°19' E 009°06'510.4
2017-Jul-11 19:30N 43°18' E 009°13'6 9.8
2017-Jul-11 18:52N 43°16' E 009°21'910.4
2017-Jul-11 17:58N 43°14' E 009°34'510.7
2017-Jul-11 17:30N 43°13' E 009°40'510.6
2017-Jul-11 17:00N 43°11' E 009°47'610.1
2017-Jul-11 16:26N 43°10' E 009°55'410.2
2017-Jul-11 16:00N 43°07' E 009°59'610.6
2017-Jul-11 15:26N 43°02' E 010°05'510.7
2017-Jul-11 14:59N 42°59' E 010°09'1210.5
2017-Jul-11 13:53N 42°50' E 010°20'4 0.4
2017-Jul-11 04:42N 42°52' E 010°15'2 8.4
2017-Jul-11 04:29N 42°52' E 010°13'  

Dump ship's entire track history